Time;durP1;ratioP1;P1;durP2;ratioP2;P2;SDS_P1;SDS_P2;PMS_P1;PMS_P2;Temp;Humidity;BMP_temperature;BMP_pressure;BME280_temperature;BME280_humidity;BME280_pressure;Samples;Min_cycle;Max_cycle;Signal;HPM_P1;HPM_P2
2022/12/11 00:01:19;;;;;;;36.65;16.65;;;;;;;-1.24;100.00;99253.19;12202091;19;20592;-82
2022/12/11 00:05:20;;;;;;;34.22;14.32;;;;;;;-1.19;100.00;99253.44;12205632;19;20002;-82
2022/12/11 00:09:22;;;;;;;39.78;14.23;;;;;;;-1.11;100.00;99266.03;12181575;19;20050;-81
2022/12/11 00:13:24;;;;;;;40.42;15.65;;;;;;;-1.06;100.00;99275.28;12202689;19;20014;-81
2022/12/11 00:17:25;;;;;;;39.15;15.27;;;;;;;-1.02;100.00;99275.72;12205436;19;20003;-82
2022/12/11 00:21:27;;;;;;;31.58;14.02;;;;;;;-0.98;100.00;99272.47;12183536;19;20076;-82
2022/12/11 00:25:28;;;;;;;37.15;15.35;;;;;;;-0.89;100.00;99277.75;12206235;19;19998;-82
2022/12/11 00:29:30;;;;;;;36.60;15.25;;;;;;;-0.82;100.00;99268.72;12207911;19;20087;-83
2022/12/11 00:33:31;;;;;;;31.80;13.50;;;;;;;-0.75;100.00;99269.59;12184959;19;20006;-83
2022/12/11 00:37:33;;;;;;;37.65;14.52;;;;;;;-0.69;100.00;99262.59;12210888;19;19999;-84
2022/12/11 00:41:35;;;;;;;30.42;13.00;;;;;;;-0.60;100.00;99261.44;12212923;19;20018;-81
2022/12/11 00:45:38;;;;;;;34.15;13.43;;;;;;;-0.55;100.00;99266.31;12193424;19;20014;-82
2022/12/11 00:49:39;;;;;;;33.22;13.18;;;;;;;-0.52;100.00;99272.16;12210469;19;20021;-81
2022/12/11 00:53:48;;;;;;;32.22;13.77;;;;;;;-0.47;100.00;99274.31;12184966;19;20072;-84
2022/12/11 00:57:50;;;;;;;32.72;13.90;;;;;;;-0.45;100.00;99274.94;12213869;19;20010;-81
2022/12/11 01:01:52;;;;;;;30.90;14.50;;;;;;;-0.45;100.00;99269.53;12203762;19;20835;-81
2022/12/11 01:05:54;;;;;;;33.10;14.77;;;;;;;-0.43;100.00;99272.88;12182806;19;20111;-83
2022/12/11 01:14:16;;;;;;;34.72;15.13;;;;;;;-0.33;100.00;99270.72;12206608;19;20006;-81
2022/12/11 01:18:17;;;;;;;34.00;14.75;;;;;;;-0.31;100.00;99268.63;12183247;19;20026;-84
2022/12/11 01:22:19;;;;;;;36.35;15.32;;;;;;;-0.27;100.00;99269.09;12205088;19;20006;-82
2022/12/11 01:26:21;;;;;;;31.87;13.87;;;;;;;-0.25;100.00;99269.75;12200940;19;20018;-82
2022/12/11 01:30:24;;;;;;;36.67;15.40;;;;;;;-0.22;100.00;99276.66;12186469;19;20039;-83
2022/12/11 01:34:28;;;;;;;31.65;15.02;;;;;;;-0.23;100.00;99259.56;12199986;19;20007;-82
2022/12/11 01:38:30;;;;;;;30.83;13.80;;;;;;;-0.20;100.00;99258.34;12200673;19;20505;-82
2022/12/11 01:42:33;;;;;;;37.42;15.73;;;;;;;-0.26;100.00;99255.38;12175590;19;20007;-80
2022/12/11 01:46:35;;;;;;;35.95;15.07;;;;;;;-0.33;100.00;99262.59;12200980;19;20006;-81
2022/12/11 01:50:42;;;;;;;37.40;15.85;;;;;;;-0.32;100.00;99263.44;12196317;19;20006;-83
2022/12/11 01:54:45;;;;;;;33.17;14.57;;;;;;;-0.29;100.00;99273.88;12177059;19;20010;-80
2022/12/11 01:58:52;;;;;;;37.75;16.15;;;;;;;-0.27;100.00;99264.53;12194621;19;20007;-82
2022/12/11 02:02:54;;;;;;;35.05;14.98;;;;;;;-0.25;100.00;99265.16;12176015;19;20456;-84
2022/12/11 02:06:55;;;;;;;35.83;15.80;;;;;;;-0.21;100.00;99268.31;12197688;19;20002;-84
2022/12/11 02:11:13;;;;;;;33.55;14.77;;;;;;;-0.16;100.00;99268.56;12199322;19;20038;-84
2022/12/11 02:15:20;;;;;;;37.20;14.88;;;;;;;-0.13;100.00;99262.78;12176890;19;20015;-84
2022/12/11 02:19:38;;;;;;;36.50;15.45;;;;;;;-0.09;100.00;99252.38;12198698;19;20762;-83
2022/12/11 02:23:59;;;;;;;37.40;15.88;;;;;;;-0.08;100.00;99260.31;12204486;19;20010;-83
2022/12/11 02:28:19;;;;;;;35.65;14.65;;;;;;;-0.06;100.00;99263.69;12186638;19;20003;-83
2022/12/11 02:32:57;;;;;;;32.13;14.45;;;;;;;-0.05;100.00;99269.94;12206851;19;20364;-84
2022/12/11 02:37:08;;;;;;;32.75;13.48;;;;;;;-0.08;100.00;99270.31;12185235;19;20015;-83
2022/12/11 02:41:10;;;;;;;35.13;16.60;;;;;;;-0.06;100.00;99269.09;12206820;19;20003;-84
2022/12/11 02:45:13;;;;;;;35.63;15.00;;;;;;;-0.03;100.00;99276.84;12187862;19;20795;-82
2022/12/11 02:49:20;;;;;;;39.08;15.75;;;;;;;0.01;100.00;99263.75;12209214;19;19998;-82
2022/12/11 02:53:24;;;;;;;34.47;15.18;;;;;;;0.02;100.00;99264.56;12207017;19;20017;-82
2022/12/11 02:57:33;;;;;;;37.40;14.80;;;;;;;0.05;100.00;99254.19;12189377;19;20002;-84
2022/12/11 03:01:34;;;;;;;32.25;14.60;;;;;;;0.07;100.00;99265.66;12207282;19;20535;-84
2022/12/11 03:05:37;;;;;;;35.35;15.73;;;;;;;0.07;100.00;99268.38;12211240;19;20002;-84
2022/12/11 03:09:40;;;;;;;37.47;16.00;;;;;;;0.08;100.00;99261.91;12189215;19;19999;-83
2022/12/11 03:13:42;;;;;;;35.53;15.43;;;;;;;0.11;100.00;99272.34;12208028;19;20405;-84
2022/12/11 03:18:06;;;;;;;28.87;11.83;;;;;;;0.14;100.00;99273.84;12212800;19;20006;-82
2022/12/11 03:22:15;;;;;;;40.58;16.05;;;;;;;0.12;100.00;99271.34;12188192;19;20006;-83
2022/12/11 03:26:19;;;;;;;38.40;15.13;;;;;;;0.13;100.00;99266.75;12209323;19;20022;-82
2022/12/11 03:30:22;;;;;;;31.65;15.00;;;;;;;0.12;100.00;99260.50;12192132;19;20014;-83
2022/12/11 03:34:35;;;;;;;40.70;16.23;;;;;;;0.12;100.00;99265.06;12208702;19;20006;-83
2022/12/11 03:38:48;;;;;;;35.85;16.27;;;;;;;0.13;100.00;99272.19;12250594;19;19999;-80
2022/12/11 03:42:52;;;;;;;38.20;16.13;;;;;;;0.01;100.00;99268.31;12235701;19;20010;-82
2022/12/11 03:46:56;;;;;;;43.28;16.20;;;;;;;-0.11;100.00;99268.00;12218197;19;21421;-85
2022/12/11 03:51:02;;;;;;;36.65;16.67;;;;;;;-0.09;100.00;99264.06;12198139;19;20003;-81
2022/12/11 03:55:05;;;;;;;38.33;16.17;;;;;;;-0.06;100.00;99265.53;12256726;19;19998;-79
2022/12/11 03:59:07;;;;;;;34.22;16.90;;;;;;;0.01;100.00;99262.91;12225570;19;20022;-83
2022/12/11 04:03:12;;;;;;;44.03;18.38;;;;;;;-0.06;100.00;99257.41;12186002;19;20019;-84
2022/12/11 04:07:14;;;;;;;39.90;17.88;;;;;;;-0.14;100.00;99265.69;12209250;19;20759;-83
2022/12/11 04:11:34;;;;;;;43.22;18.27;;;;;;;-0.11;100.00;99268.84;12206078;19;20014;-82
2022/12/11 04:15:37;;;;;;;41.00;17.63;;;;;;;-0.10;100.00;99267.78;12186717;19;20500;-83
2022/12/11 04:24:14;;;;;;;42.33;17.02;;;;;;;0.04;100.00;99257.09;12181243;19;19953;-84
2022/12/11 04:28:15;;;;;;;38.67;17.05;;;;;;;0.09;100.00;99257.31;12205604;19;20018;-84
2022/12/11 04:32:17;;;;;;;41.28;17.90;;;;;;;0.06;100.00;99265.84;12202841;19;20575;-84
2022/12/11 04:36:19;;;;;;;37.15;17.50;;;;;;;0.02;100.00;99272.69;12184925;19;20021;-82
2022/12/11 04:40:21;;;;;;;40.60;17.40;;;;;;;-0.02;100.00;99262.25;12202201;19;20030;-83
2022/12/11 04:44:22;;;;;;;40.42;16.13;;;;;;;0.04;100.00;99268.75;12201405;19;20023;-84
2022/12/11 04:48:24;;;;;;;42.75;17.52;;;;;;;0.10;100.00;99267.16;12182016;19;20038;-82
2022/12/11 04:52:25;;;;;;;39.08;16.73;;;;;;;0.14;100.00;99265.72;12202522;19;20010;-85
2022/12/11 04:56:27;;;;;;;42.78;17.83;;;;;;;0.15;100.00;99257.41;12203914;19;20031;-83
2022/12/11 05:00:29;;;;;;;40.30;17.08;;;;;;;0.16;100.00;99250.09;12178676;19;20011;-84
2022/12/11 05:04:33;;;;;;;33.77;16.70;;;;;;;0.19;100.00;99250.53;12200770;19;20003;-83
2022/12/11 05:08:36;;;;;;;35.38;14.45;;;;;;;0.21;100.00;99248.50;12203946;19;20031;-83
2022/12/11 05:12:38;;;;;;;37.40;14.77;;;;;;;0.13;100.00;99255.91;12176580;19;20050;-84
2022/12/11 05:16:40;;;;;;;33.58;14.77;;;;;;;0.09;100.00;99250.06;12197182;19;20006;-83
2022/12/11 05:20:41;;;;;;;39.92;16.48;;;;;;;0.00;100.00;99251.25;12197626;19;20053;-82
2022/12/11 05:24:44;;;;;;;43.97;17.38;;;;;;;-0.04;100.00;99244.50;12175257;19;20417;-82
2022/12/11 05:28:52;;;;;;;43.47;17.05;;;;;;;0.03;100.00;99240.00;12199758;19;20035;-83
2022/12/11 05:32:53;;;;;;;37.95;16.10;;;;;;;0.09;100.00;99235.66;12170251;19;20457;-83
2022/12/11 05:36:55;;;;;;;41.08;15.88;;;;;;;0.12;100.00;99238.84;12194286;19;20748;-83
2022/12/11 05:41:02;;;;;;;36.85;15.43;;;;;;;0.17;100.00;99235.50;12195741;19;20003;-83
2022/12/11 05:45:04;;;;;;;37.75;15.38;;;;;;;0.20;100.00;99235.94;12174828;19;20006;-83
2022/12/11 05:49:06;;;;;;;28.93;11.43;;;;;;;0.10;100.00;99240.06;12194286;19;20006;-83
2022/12/11 05:53:08;;;;;;;38.70;16.23;;;;;;;0.04;100.00;99225.41;12192775;19;20013;-83
2022/12/11 05:57:09;;;;;;;44.95;18.88;;;;;;;0.03;100.00;99225.59;12180813;19;20520;-83
2022/12/11 06:01:14;;;;;;;42.78;17.58;;;;;;;-0.03;100.00;99213.69;12204795;19;20004;-83
2022/12/11 06:05:16;;;;;;;40.58;18.80;;;;;;;-0.05;100.00;99211.19;12205427;19;20006;-83
2022/12/11 06:09:17;;;;;;;42.53;19.13;;;;;;;-0.01;100.00;99219.75;12188724;19;20080;-83
2022/12/11 06:13:19;;;;;;;39.78;17.67;;;;;;;0.03;100.00;99220.19;12205058;19;20011;-81
2022/12/11 06:17:22;;;;;;;44.80;19.02;;;;;;;0.07;100.00;99232.31;12209696;19;20678;-84
2022/12/11 06:21:26;;;;;;;42.92;18.63;;;;;;;0.11;100.00;99229.00;12183479;19;20381;-82
2022/12/11 06:25:29;;;;;;;41.90;18.08;;;;;;;0.17;100.00;99232.81;12206362;19;20002;-83
2022/12/11 06:29:30;;;;;;;40.73;17.43;;;;;;;0.22;100.00;99228.47;12207466;19;20002;-83
2022/12/11 06:33:32;;;;;;;34.35;15.00;;;;;;;0.25;100.00;99223.72;12180408;19;19998;-83
2022/12/11 06:37:35;;;;;;;42.43;15.70;;;;;;;0.23;100.00;99213.88;12207215;19;20010;-83
2022/12/11 06:41:37;;;;;;;36.03;14.70;;;;;;;0.27;100.00;99205.34;12205267;19;20255;-83
2022/12/11 06:45:39;;;;;;;32.30;13.95;;;;;;;0.22;100.00;99217.63;12183723;19;20027;-83
2022/12/11 06:49:40;;;;;;;35.65;16.55;;;;;;;0.26;100.00;99207.22;12206587;19;20053;-82
2022/12/11 06:53:43;;;;;;;37.65;16.23;;;;;;;0.24;100.00;99214.75;12201833;19;20006;-84
2022/12/11 06:57:44;;;;;;;21.15;11.05;;;;;;;0.23;100.00;99208.47;12183056;19;20003;-84
2022/12/11 07:01:46;;;;;;;41.08;16.25;;;;;;;0.23;100.00;99213.06;12202584;19;20027;-81
2022/12/11 07:05:47;;;;;;;38.55;16.48;;;;;;;0.27;100.00;99203.50;12196022;19;20015;-83
2022/12/11 07:09:49;;;;;;;36.78;15.57;;;;;;;0.34;100.00;99208.97;12207369;19;20011;-84
2022/12/11 07:13:51;;;;;;;41.67;16.33;;;;;;;0.41;100.00;99212.53;12202445;19;20007;-83
2022/12/11 07:17:53;;;;;;;36.13;16.55;;;;;;;0.37;100.00;99206.69;12182524;19;20003;-82
2022/12/11 07:21:54;;;;;;;39.60;16.30;;;;;;;0.40;100.00;99203.56;12201060;19;20006;-82
2022/12/11 07:25:56;;;;;;;38.50;17.02;;;;;;;0.43;100.00;99207.78;12204738;19;20010;-82
2022/12/11 07:29:58;;;;;;;37.67;16.57;;;;;;;0.41;100.00;99210.66;12185526;19;19999;-82
2022/12/11 07:34:02;;;;;;;45.03;17.67;;;;;;;0.47;100.00;99211.75;12197957;19;20247;-82
2022/12/11 07:38:04;;;;;;;40.25;18.02;;;;;;;0.47;100.00;99219.88;12205522;19;20708;-80
2022/12/11 07:42:06;;;;;;;41.13;17.17;;;;;;;0.52;100.00;99224.72;12180992;19;20017;-83
2022/12/11 07:46:14;;;;;;;38.70;17.73;;;;;;;0.51;100.00;99232.00;12207605;19;19999;-83
2022/12/11 07:50:16;;;;;;;45.63;17.60;;;;;;;0.45;100.00;99243.66;12207985;19;20003;-83
2022/12/11 07:54:17;;;;;;;46.35;18.85;;;;;;;0.48;100.00;99239.69;12183067;19;20006;-83
2022/12/11 07:58:19;;;;;;;45.80;18.75;;;;;;;0.54;100.00;99236.22;12207411;19;19999;-84
2022/12/11 08:02:21;;;;;;;49.00;19.63;;;;;;;0.56;100.00;99234.09;12207364;19;19998;-83
2022/12/11 08:06:31;;;;;;;46.58;19.58;;;;;;;0.53;100.00;99229.91;12186582;19;20015;-83
2022/12/11 08:10:33;;;;;;;46.97;18.65;;;;;;;0.62;100.00;99222.47;12210614;19;20007;-83
2022/12/11 08:14:35;;;;;;;48.38;18.95;;;;;;;0.61;100.00;99226.22;12223927;19;20013;-83
2022/12/11 08:18:36;;;;;;;50.10;20.33;;;;;;;0.48;100.00;99235.13;12179444;19;20038;-81
2022/12/11 08:22:38;;;;;;;47.25;19.52;;;;;;;0.48;100.00;99248.69;12195694;19;20011;-83
2022/12/11 08:26:40;;;;;;;44.35;19.45;;;;;;;0.50;100.00;99245.75;12203132;19;19998;-84
2022/12/11 08:30:41;;;;;;;39.47;18.42;;;;;;;0.55;100.00;99254.13;12186718;19;20014;-83
2022/12/11 08:34:43;;;;;;;46.70;18.58;;;;;;;0.55;100.00;99254.13;12232800;19;20049;-81
2022/12/11 08:38:45;;;;;;;43.77;18.70;;;;;;;0.62;100.00;99255.84;12238765;19;20041;-84
2022/12/11 08:42:47;;;;;;;49.53;19.80;;;;;;;0.72;100.00;99247.38;12156728;19;20038;-84
2022/12/11 08:46:49;;;;;;;30.40;13.35;;;;;;;0.82;100.00;99242.41;12208033;19;20297;-84
2022/12/11 08:50:51;;;;;;;44.22;18.50;;;;;;;0.86;100.00;99243.69;12184296;19;20007;-83
2022/12/11 08:54:53;;;;;;;42.70;16.98;;;;;;;0.94;100.00;99236.41;12206392;19;20363;-84
2022/12/11 08:58:54;;;;;;;40.50;18.25;;;;;;;0.97;100.00;99238.72;12210623;19;20031;-84
2022/12/11 09:02:56;;;;;;;41.33;17.45;;;;;;;0.92;100.00;99242.03;12184767;19;20014;-84
2022/12/11 09:06:58;;;;;;;45.80;18.38;;;;;;;0.87;100.00;99245.34;12211400;19;20027;-84
2022/12/11 09:11:05;;;;;;;40.25;17.23;;;;;;;0.93;100.00;99234.75;12211842;19;20010;-85
2022/12/11 09:15:10;;;;;;;42.75;17.58;;;;;;;0.95;100.00;99238.06;12186002;19;20023;-84
2022/12/11 09:19:13;;;;;;;40.00;17.48;;;;;;;0.96;100.00;99232.47;12223933;19;20010;-81
2022/12/11 09:23:15;;;;;;;40.88;18.02;;;;;;;0.97;100.00;99249.56;12253692;19;20042;-81
2022/12/11 09:27:18;;;;;;;45.38;18.92;;;;;;;0.89;100.00;99254.13;12209504;19;20384;-84
2022/12/11 09:31:31;;;;;;;49.90;19.25;;;;;;;0.77;100.00;99249.47;12211519;19;20118;-84
2022/12/11 09:35:33;;;;;;;46.78;18.35;;;;;;;0.80;100.00;99247.19;12204948;19;20030;-83
2022/12/11 09:39:34;;;;;;;47.20;18.85;;;;;;;0.89;100.00;99240.56;12188239;19;20010;-81
2022/12/11 09:43:51;;;;;;;45.20;17.40;;;;;;;1.04;100.00;99243.16;12208868;19;20007;-84
2022/12/11 09:47:55;;;;;;;42.75;17.00;;;;;;;1.14;100.00;99237.34;12185390;19;20061;-83
2022/12/11 09:52:18;;;;;;;46.63;18.45;;;;;;;1.26;100.00;99230.28;12201430;19;20078;-81
2022/12/11 09:56:24;;;;;;;;;;;;;;;1.38;100.00;99230.53;12203220;19;20002;-83
2022/12/11 10:00:40;;;;;;;42.15;16.63;;;;;;;1.48;100.00;99230.13;12182789;19;19907;-84
2022/12/11 10:05:01;;;;;;;48.75;19.58;;;;;;;1.43;100.00;99229.88;12204511;19;20618;-83
2022/12/11 10:09:29;;;;;;;51.25;20.10;;;;;;;1.48;100.00;99232.84;12182908;19;20575;-82
2022/12/11 10:14:06;;;;;;;49.63;19.90;;;;;;;1.52;100.00;99220.53;12201039;19;20523;-81
2022/12/11 10:18:14;;;;;;;52.03;20.02;;;;;;;1.44;100.00;99223.44;12187581;19;20088;-82
2022/12/11 10:22:23;;;;;;;47.58;19.92;;;;;;;1.42;100.00;99218.19;12205388;19;20031;-83
2022/12/11 10:26:28;;;;;;;49.33;19.92;;;;;;;1.58;100.00;99211.56;12208866;19;20410;-83
2022/12/11 10:30:36;;;;;;;50.78;19.73;;;;;;;1.73;100.00;99205.94;12186590;19;20017;-84
2022/12/11 10:34:42;;;;;;;52.13;20.52;;;;;;;1.94;100.00;99205.75;12205024;19;20007;-84
2022/12/11 10:38:45;;;;;;;46.33;19.15;;;;;;;2.10;100.00;99196.31;12206783;19;20127;-83
2022/12/11 10:42:52;;;;;;;51.15;19.20;;;;;;;2.19;100.00;99197.78;12188472;19;20034;-83
2022/12/11 10:47:20;;;;;;;51.33;18.92;;;;;;;2.21;100.00;99189.44;12217610;19;20496;-83
2022/12/11 10:51:25;;;;;;;45.97;20.13;;;;;;;2.20;100.00;99183.16;12193435;19;20006;-84
2022/12/11 10:55:33;;;;;;;50.83;20.27;;;;;;;2.22;100.00;99181.03;12211082;19;20006;-84
2022/12/11 10:59:39;;;;;;;51.50;19.25;;;;;;;2.27;100.00;99177.72;12214953;19;20030;-84
2022/12/11 11:04:12;;;;;;;46.33;18.88;;;;;;;2.24;100.00;99181.69;12188675;19;20451;-84
2022/12/11 11:08:21;;;;;;;55.53;21.48;;;;;;;2.28;99.32;99184.81;12216285;19;20445;-81
2022/12/11 11:12:26;;;;;;;47.83;19.67;;;;;;;2.15;99.37;99163.94;12190918;19;20006;-81
2022/12/11 11:16:28;;;;;;;42.05;19.52;;;;;;;2.20;100.00;99161.41;12212856;19;20013;-83
2022/12/11 11:20:32;;;;;;;44.13;18.27;;;;;;;2.13;100.00;99160.56;12209073;19;20472;-81
2022/12/11 11:24:40;;;;;;;48.75;19.30;;;;;;;2.20;100.00;99160.56;12187134;19;20017;-83
2022/12/11 11:28:47;;;;;;;48.67;17.92;;;;;;;2.28;100.00;99158.44;12208912;19;20400;-85
2022/12/11 11:32:53;;;;;;;53.17;22.05;;;;;;;2.39;99.81;99148.00;12202887;19;20014;-83
2022/12/11 11:36:56;;;;;;;45.83;20.05;;;;;;;2.49;99.78;99145.66;12188455;19;20022;-84
2022/12/11 11:41:23;;;;;;;52.90;19.92;;;;;;;2.39;99.12;99148.00;12203369;19;20010;-84
2022/12/11 11:45:38;;;;;;;54.22;19.50;;;;;;;2.43;100.00;99139.19;12185661;19;20011;-82
2022/12/11 11:49:51;;;;;;;47.65;19.30;;;;;;;2.55;100.00;99146.69;12208273;19;20006;-82
2022/12/11 11:53:57;;;;;;;44.92;19.35;;;;;;;2.48;99.12;99141.28;12176535;19;20470;-84
2022/12/11 11:58:06;;;;;;;43.03;18.13;;;;;;;2.31;99.04;99140.88;12202304;19;20006;-84
2022/12/11 12:02:16;;;;;;;44.63;19.27;;;;;;;2.41;99.62;99137.72;12202213;19;20006;-80
2022/12/11 12:06:24;;;;;;;44.80;18.23;;;;;;;2.50;98.68;99131.03;12186838;19;20014;-81
2022/12/11 12:10:37;;;;;;;44.17;17.10;;;;;;;2.43;98.76;99136.44;12207297;19;20014;-85
2022/12/11 12:15:17;;;;;;;45.72;18.55;;;;;;;2.50;97.99;99133.75;12205018;19;19999;-83
2022/12/11 12:19:22;;;;;;;43.67;17.70;;;;;;;2.41;98.39;99135.00;12183220;19;20129;-83
2022/12/11 12:23:40;;;;;;;46.50;19.13;;;;;;;2.37;98.24;99131.03;12205213;19;20062;-83
2022/12/11 12:27:53;;;;;;;44.15;18.25;;;;;;;2.38;98.58;99130.84;12183695;19;20010;-82
2022/12/11 12:32:01;;;;;;;39.03;18.27;;;;;;;2.56;98.59;99129.31;12203880;19;20820;-83
2022/12/11 12:36:21;;;;;;;45.67;20.38;;;;;;;2.66;97.73;99127.81;12184425;19;20014;-84
2022/12/11 12:40:43;;;;;;;46.97;20.50;;;;;;;2.67;96.41;99125.91;12207569;19;20006;-84
2022/12/11 12:45:07;;;;;;;46.20;19.73;;;;;;;2.53;96.68;99125.16;12209502;19;20010;-83
2022/12/11 12:49:14;;;;;;;51.08;18.38;;;;;;;2.51;96.48;99127.25;12187728;19;20006;-83
2022/12/11 12:53:27;;;;;;;45.53;18.60;;;;;;;2.38;96.49;99121.81;12205615;19;20015;-84
2022/12/11 12:57:29;;;;;;;;;;;;;;;2.27;96.84;99128.78;12179525;19;20007;-81
2022/12/11 13:01:31;;;;;;;44.72;17.63;;;;;;;2.07;96.17;99138.84;12205904;19;19907;-84
2022/12/11 13:05:33;;;;;;;50.95;19.65;;;;;;;1.93;97.99;99132.56;12208887;19;20483;-83
2022/12/11 13:09:35;;;;;;;31.60;13.47;;;;;;;1.96;98.48;99133.03;12186336;19;20006;-83
2022/12/11 13:13:41;;;;;;;46.25;18.52;;;;;;;1.88;97.40;99135.13;12209235;19;20038;-85
2022/12/11 13:17:42;;;;;;;41.80;20.50;;;;;;;1.76;98.00;99127.59;12212140;19;20369;-83
2022/12/11 13:21:55;;;;;;;46.60;18.40;;;;;;;1.77;98.18;99129.25;12215648;19;20006;-82
2022/12/11 13:26:00;;;;;;;46.67;19.42;;;;;;;1.81;97.66;99130.53;12251402;19;20134;-84
2022/12/11 13:30:14;;;;;;;45.08;18.55;;;;;;;1.79;97.06;99127.16;12192222;19;20037;-83
2022/12/11 13:34:21;;;;;;;43.88;17.45;;;;;;;1.72;96.97;99130.91;12204231;19;20028;-83
2022/12/11 13:38:24;;;;;;;40.75;17.10;;;;;;;1.70;97.32;99133.88;12210707;19;20428;-83
2022/12/11 13:42:31;;;;;;;;;;;;;;;1.78;97.20;99130.09;12185361;19;20010;-83
2022/12/11 13:46:36;;;;;;;40.65;16.08;;;;;;;1.79;96.34;99138.03;12209034;19;19934;-84
2022/12/11 13:50:42;;;;;;;46.35;17.50;;;;;;;1.74;97.21;99118.81;12209035;19;20540;-84
2022/12/11 13:54:55;;;;;;;44.13;18.52;;;;;;;1.80;97.04;99123.41;12186223;19;20002;-83
2022/12/11 13:58:56;;;;;;;44.78;16.90;;;;;;;1.72;95.96;99126.31;12205484;19;20037;-84
2022/12/11 14:03:04;;;;;;;39.45;16.58;;;;;;;1.62;96.29;99134.06;12180912;19;20360;-82
2022/12/11 14:07:08;;;;;;;41.08;17.60;;;;;;;1.57;97.32;99134.66;12205588;19;20030;-81
2022/12/11 14:11:20;;;;;;;39.75;17.80;;;;;;;1.63;97.40;99135.72;12206310;19;20011;-82
2022/12/11 14:15:22;;;;;;;38.50;15.82;;;;;;;1.66;97.27;99140.72;12184229;19;20089;-83
2022/12/11 14:19:24;;;;;;;43.05;17.25;;;;;;;1.67;96.70;99150.56;12216300;19;20090;-82
2022/12/11 14:23:30;;;;;;;47.53;16.98;;;;;;;1.55;96.89;99146.81;12215782;19;20007;-82
2022/12/11 14:27:32;;;;;;;39.88;15.93;;;;;;;1.54;97.29;99148.66;12205038;19;20033;-82
2022/12/11 14:31:39;;;;;;;46.70;16.80;;;;;;;1.49;97.85;99150.38;12214104;19;20007;-82
2022/12/11 14:35:42;;;;;;;39.58;17.02;;;;;;;1.50;97.68;99161.00;12214682;19;20035;-82
2022/12/11 14:39:51;;;;;;;43.78;16.52;;;;;;;1.51;98.35;99148.25;12191022;19;20034;-83
2022/12/11 14:43:57;;;;;;;42.35;16.17;;;;;;;1.55;98.10;99163.09;12209294;19;20054;-83
2022/12/11 14:48:02;;;;;;;40.65;17.23;;;;;;;1.63;98.43;99167.47;12185390;19;20013;-82
2022/12/11 14:52:04;;;;;;;41.47;16.00;;;;;;;1.64;97.85;99171.88;12205656;19;20002;-82
2022/12/11 14:56:08;;;;;;;42.47;16.27;;;;;;;1.59;97.98;99162.47;12210668;19;20065;-81
2022/12/11 15:00:28;;;;;;;46.15;18.75;;;;;;;1.63;98.26;99167.47;12227560;19;20007;-80
2022/12/11 15:04:32;;;;;;;53.17;19.90;;;;;;;1.53;97.74;99176.88;12247552;19;20010;-82
2022/12/11 15:08:35;;;;;;;52.13;20.33;;;;;;;1.45;98.49;99178.94;12214432;19;20031;-84
2022/12/11 15:12:43;;;;;;;46.60;18.40;;;;;;;1.40;99.35;99174.16;12190988;19;20018;-84
2022/12/11 15:16:48;;;;;;;45.03;19.52;;;;;;;1.44;99.57;99171.84;12214485;19;20006;-85
2022/12/11 15:20:53;;;;;;;43.22;19.17;;;;;;;1.48;99.43;99168.50;12211035;19;20695;-82
2022/12/11 15:24:55;;;;;;;47.13;18.80;;;;;;;1.49;99.58;99166.66;12189281;19;20734;-83
2022/12/11 15:29:01;;;;;;;43.38;18.48;;;;;;;1.46;99.08;99175.19;12209944;19;20494;-84
2022/12/11 15:33:09;;;;;;;48.67;19.98;;;;;;;1.35;99.00;99177.47;12181936;19;20003;-84
2022/12/11 15:37:31;;;;;;;47.55;18.35;;;;;;;1.32;99.51;99172.47;12209733;19;20456;-84
2022/12/11 15:41:33;;;;;;;47.43;18.10;;;;;;;1.38;100.00;99184.38;12209823;19;20018;-82
2022/12/11 15:45:35;;;;;;;50.15;20.23;;;;;;;1.40;100.00;99181.44;12185737;19;20006;-84
2022/12/11 15:49:36;;;;;;;52.35;19.42;;;;;;;1.38;99.16;99183.53;12206734;19;20063;-83
2022/12/11 15:53:38;;;;;;;50.78;20.17;;;;;;;1.28;99.75;99181.19;12206775;19;20766;-82
2022/12/11 15:58:01;;;;;;;55.92;19.90;;;;;;;1.24;99.98;99183.50;12185586;19;20087;-84
2022/12/11 16:02:03;;;;;;;46.63;19.08;;;;;;;1.27;100.00;99182.25;12198719;19;20074;-83
2022/12/11 16:06:04;;;;;;;51.08;20.45;;;;;;;1.32;100.00;99190.63;12186706;19;20046;-81
2022/12/11 16:10:12;;;;;;;52.13;20.10;;;;;;;1.35;100.00;99192.94;12205685;19;20041;-83
2022/12/11 16:14:13;;;;;;;54.78;21.75;;;;;;;1.36;100.00;99187.28;12203902;19;20031;-84
2022/12/11 16:18:19;;;;;;;48.28;19.38;;;;;;;1.41;100.00;99185.84;12186835;19;20671;-84
2022/12/11 16:22:21;;;;;;;56.00;20.25;;;;;;;1.38;100.00;99178.94;12206137;19;20091;-84
2022/12/11 16:26:22;;;;;;;46.92;19.00;;;;;;;1.34;100.00;99177.69;12209558;19;20002;-84
2022/12/11 16:30:26;;;;;;;41.88;18.13;;;;;;;1.36;100.00;99181.03;12184879;19;20006;-83
2022/12/11 16:34:28;;;;;;;46.15;18.08;;;;;;;1.39;100.00;99175.19;12200818;19;20106;-84
2022/12/11 16:38:29;;;;;;;42.45;18.17;;;;;;;1.42;100.00;99173.94;12201377;19;20108;-83
2022/12/11 16:42:32;;;;;;;49.42;18.73;;;;;;;1.43;100.00;99170.16;12188876;19;20019;-85
2022/12/11 16:46:33;;;;;;;41.33;17.67;;;;;;;1.44;100.00;99171.84;12212644;19;20042;-83
2022/12/11 16:50:38;;;;;;;50.38;18.52;;;;;;;1.51;100.00;99172.69;12213774;19;20007;-82
2022/12/11 16:54:40;;;;;;;48.90;18.25;;;;;;;1.54;100.00;99169.56;12195609;19;20050;-83
2022/12/11 16:58:41;;;;;;;50.10;19.90;;;;;;;1.52;100.00;99166.25;12221296;19;20070;-84
2022/12/11 17:02:43;;;;;;;52.67;19.15;;;;;;;1.50;100.00;99169.16;12206014;19;20090;-83
2022/12/11 17:06:45;;;;;;;50.13;19.23;;;;;;;1.47;100.00;99166.84;12186634;19;20014;-79
2022/12/11 17:10:47;;;;;;;51.88;19.88;;;;;;;1.42;100.00;99165.78;12210148;19;20578;-82
2022/12/11 17:14:49;;;;;;;53.20;20.48;;;;;;;1.40;100.00;99159.72;12209047;19;20031;-82
2022/12/11 17:18:52;;;;;;;57.03;18.45;;;;;;;1.40;100.00;99157.00;12187596;19;20002;-83
2022/12/11 17:22:53;;;;;;;46.63;19.27;;;;;;;1.42;100.00;99161.19;12206184;19;20078;-83
2022/12/11 17:26:55;;;;;;;53.60;20.05;;;;;;;1.42;100.00;99152.22;12184126;19;20756;-83
2022/12/11 17:30:57;;;;;;;47.88;19.10;;;;;;;1.40;100.00;99162.44;12202761;19;20073;-81
2022/12/11 17:34:59;;;;;;;49.83;19.90;;;;;;;1.38;100.00;99157.22;12200639;19;20010;-83
2022/12/11 17:39:00;;;;;;;51.58;19.85;;;;;;;1.41;100.00;99164.97;12182350;19;20010;-83
2022/12/11 17:43:05;;;;;;;48.85;19.25;;;;;;;1.43;100.00;99160.16;12204170;19;20006;-83
2022/12/11 17:47:06;;;;;;;50.67;17.27;;;;;;;1.44;100.00;99166.44;12213328;19;20003;-82
2022/12/11 17:51:19;;;;;;;44.88;19.70;;;;;;;1.41;100.00;99162.25;12199335;19;20014;-80
2022/12/11 17:55:21;;;;;;;49.70;19.27;;;;;;;1.39;100.00;99163.47;12218481;19;20302;-84
2022/12/11 17:59:23;;;;;;;44.00;18.67;;;;;;;1.35;100.00;99163.06;12234840;19;20006;-81
2022/12/11 18:03:27;;;;;;;46.47;18.85;;;;;;;1.33;100.00;99162.44;12212565;19;20007;-84
2022/12/11 18:07:28;;;;;;;53.70;20.80;;;;;;;1.27;100.00;99161.38;12229691;19;20006;-81
2022/12/11 18:11:31;;;;;;;46.38;18.77;;;;;;;1.25;100.00;99166.19;12252671;19;20043;-79
2022/12/11 18:15:35;;;;;;;51.35;18.67;;;;;;;1.22;100.00;99166.59;12208718;19;20013;-82
2022/12/11 18:19:36;;;;;;;50.78;17.63;;;;;;;1.23;100.00;99162.00;12208311;19;20006;-83
2022/12/11 18:23:46;;;;;;;43.30;18.30;;;;;;;1.20;100.00;99168.69;12201250;19;20006;-83
2022/12/11 18:27:48;;;;;;;51.42;20.30;;;;;;;1.13;100.00;99165.09;12184232;19;20031;-85
2022/12/11 18:31:50;;;;;;;47.15;17.85;;;;;;;1.13;100.00;99165.94;12200164;19;20619;-84
2022/12/11 18:35:52;;;;;;;43.08;16.33;;;;;;;1.19;100.00;99158.88;12200397;19;20017;-83
2022/12/11 18:39:53;;;;;;;42.78;17.30;;;;;;;1.21;100.00;99159.47;12211888;19;20556;-81
2022/12/11 18:43:59;;;;;;;34.65;17.05;;;;;;;1.20;100.00;99160.53;12211119;19;20030;-83